sensor_id;sensor_type;location;lat;lon;timestamp;temperature;humidity
38592;DHT22;24356;48.460;11.450;2023-06-04T00:00:47;12.70;71.50
38592;DHT22;24356;48.460;11.450;2023-06-04T00:03:13;12.70;71.60
38592;DHT22;24356;48.460;11.450;2023-06-04T00:05:38;12.60;71.60
38592;DHT22;24356;48.460;11.450;2023-06-04T00:08:05;12.60;71.60
38592;DHT22;24356;48.460;11.450;2023-06-04T00:10:31;12.50;71.60
38592;DHT22;24356;48.460;11.450;2023-06-04T00:12:59;12.50;71.80
38592;DHT22;24356;48.460;11.450;2023-06-04T00:15:24;12.50;71.80
38592;DHT22;24356;48.460;11.450;2023-06-04T00:17:50;12.40;71.90
38592;DHT22;24356;48.460;11.450;2023-06-04T00:20:18;12.40;71.90
38592;DHT22;24356;48.460;11.450;2023-06-04T00:22:44;12.30;72.00
38592;DHT22;24356;48.460;11.450;2023-06-04T00:25:10;12.30;72.00
38592;DHT22;24356;48.460;11.450;2023-06-04T00:27:36;12.30;72.00
38592;DHT22;24356;48.460;11.450;2023-06-04T00:30:02;12.20;71.90
38592;DHT22;24356;48.460;11.450;2023-06-04T00:32:29;12.20;71.90
38592;DHT22;24356;48.460;11.450;2023-06-04T00:34:55;12.20;72.10
38592;DHT22;24356;48.460;11.450;2023-06-04T00:37:23;12.10;72.00
38592;DHT22;24356;48.460;11.450;2023-06-04T00:39:49;12.10;72.10
38592;DHT22;24356;48.460;11.450;2023-06-04T00:42:15;12.10;72.10
38592;DHT22;24356;48.460;11.450;2023-06-04T00:44:41;12.00;72.20
38592;DHT22;24356;48.460;11.450;2023-06-04T00:47:13;12.00;72.20
38592;DHT22;24356;48.460;11.450;2023-06-04T00:49:41;12.00;72.30
38592;DHT22;24356;48.460;11.450;2023-06-04T00:52:08;11.90;72.30
38592;DHT22;24356;48.460;11.450;2023-06-04T00:54:35;11.90;72.20
38592;DHT22;24356;48.460;11.450;2023-06-04T00:57:01;11.90;72.30
38592;DHT22;24356;48.460;11.450;2023-06-04T00:59:29;11.80;72.30
38592;DHT22;24356;48.460;11.450;2023-06-04T01:07:16;11.70;72.50
38592;DHT22;24356;48.460;11.450;2023-06-04T01:09:44;11.70;72.50
38592;DHT22;24356;48.460;11.450;2023-06-04T01:12:10;11.70;72.60
38592;DHT22;24356;48.460;11.450;2023-06-04T01:14:36;11.60;72.60
38592;DHT22;24356;48.460;11.450;2023-06-04T01:27:55;11.50;72.70
38592;DHT22;24356;48.460;11.450;2023-06-04T01:30:35;11.50;72.70
38592;DHT22;24356;48.460;11.450;2023-06-04T01:33:02;11.50;72.80
38592;DHT22;24356;48.460;11.450;2023-06-04T01:35:29;11.40;72.80
38592;DHT22;24356;48.460;11.450;2023-06-04T01:37:58;11.40;72.70
38592;DHT22;24356;48.460;11.450;2023-06-04T01:40:24;11.40;72.90
38592;DHT22;24356;48.460;11.450;2023-06-04T01:42:51;11.30;72.90
38592;DHT22;24356;48.460;11.450;2023-06-04T01:45:17;11.30;73.00
38592;DHT22;24356;48.460;11.450;2023-06-04T01:47:42;11.30;73.10
38592;DHT22;24356;48.460;11.450;2023-06-04T01:50:08;11.30;73.00
38592;DHT22;24356;48.460;11.450;2023-06-04T01:52:38;11.20;73.10
38592;DHT22;24356;48.460;11.450;2023-06-04T01:55:04;11.20;73.10
38592;DHT22;24356;48.460;11.450;2023-06-04T01:57:30;11.20;73.20
38592;DHT22;24356;48.460;11.450;2023-06-04T01:59:56;11.20;73.10
38592;DHT22;24356;48.460;11.450;2023-06-04T02:02:22;11.10;73.10
38592;DHT22;24356;48.460;11.450;2023-06-04T02:04:47;11.10;73.20
38592;DHT22;24356;48.460;11.450;2023-06-04T02:07:18;11.10;73.10
38592;DHT22;24356;48.460;11.450;2023-06-04T02:09:46;11.00;73.20
38592;DHT22;24356;48.460;11.450;2023-06-04T02:12:12;11.00;73.30
38592;DHT22;24356;48.460;11.450;2023-06-04T02:14:37;11.00;73.20
38592;DHT22;24356;48.460;11.450;2023-06-04T02:17:04;11.00;73.20
38592;DHT22;24356;48.460;11.450;2023-06-04T02:19:30;10.90;73.20
38592;DHT22;24356;48.460;11.450;2023-06-04T02:21:59;10.90;73.30
38592;DHT22;24356;48.460;11.450;2023-06-04T02:24:25;10.90;73.30
38592;DHT22;24356;48.460;11.450;2023-06-04T02:26:50;10.80;73.30
38592;DHT22;24356;48.460;11.450;2023-06-04T02:29:16;10.80;73.30
38592;DHT22;24356;48.460;11.450;2023-06-04T02:31:41;10.80;73.40
38592;DHT22;24356;48.460;11.450;2023-06-04T02:34:07;10.80;73.30
38592;DHT22;24356;48.460;11.450;2023-06-04T02:36:33;10.70;73.40
38592;DHT22;24356;48.460;11.450;2023-06-04T02:38:59;10.70;73.50
38592;DHT22;24356;48.460;11.450;2023-06-04T02:41:26;10.70;73.40
38592;DHT22;24356;48.460;11.450;2023-06-04T02:43:52;10.70;73.60
38592;DHT22;24356;48.460;11.450;2023-06-04T02:46:17;10.60;73.60
38592;DHT22;24356;48.460;11.450;2023-06-04T02:48:44;10.60;73.60
38592;DHT22;24356;48.460;11.450;2023-06-04T02:51:11;10.60;73.60
38592;DHT22;24356;48.460;11.450;2023-06-04T02:53:37;10.60;73.70
38592;DHT22;24356;48.460;11.450;2023-06-04T02:56:02;10.50;73.70
38592;DHT22;24356;48.460;11.450;2023-06-04T02:58:28;10.50;73.70
38592;DHT22;24356;48.460;11.450;2023-06-04T03:00:54;10.50;73.70
38592;DHT22;24356;48.460;11.450;2023-06-04T03:03:20;10.50;73.70
38592;DHT22;24356;48.460;11.450;2023-06-04T03:05:46;10.40;73.80
38592;DHT22;24356;48.460;11.450;2023-06-04T03:08:11;10.40;73.80
38592;DHT22;24356;48.460;11.450;2023-06-04T03:10:37;10.40;73.70
38592;DHT22;24356;48.460;11.450;2023-06-04T03:13:03;10.40;73.80
38592;DHT22;24356;48.460;11.450;2023-06-04T03:15:29;10.30;73.70
38592;DHT22;24356;48.460;11.450;2023-06-04T03:17:54;10.30;73.70
38592;DHT22;24356;48.460;11.450;2023-06-04T03:20:20;10.30;73.90
38592;DHT22;24356;48.460;11.450;2023-06-04T03:22:50;10.30;73.80
38592;DHT22;24356;48.460;11.450;2023-06-04T03:25:15;10.20;73.90
38592;DHT22;24356;48.460;11.450;2023-06-04T03:27:41;10.20;73.80
38592;DHT22;24356;48.460;11.450;2023-06-04T03:30:09;10.20;74.00
38592;DHT22;24356;48.460;11.450;2023-06-04T03:32:35;10.20;74.00
38592;DHT22;24356;48.460;11.450;2023-06-04T03:35:01;10.20;74.10
38592;DHT22;24356;48.460;11.450;2023-06-04T03:37:26;10.10;74.00
38592;DHT22;24356;48.460;11.450;2023-06-04T03:39:54;10.10;74.00
38592;DHT22;24356;48.460;11.450;2023-06-04T03:42:23;10.10;74.10
38592;DHT22;24356;48.460;11.450;2023-06-04T03:44:48;10.10;74.10
38592;DHT22;24356;48.460;11.450;2023-06-04T03:47:15;10.10;74.20
38592;DHT22;24356;48.460;11.450;2023-06-04T03:49:41;10.10;74.20
38592;DHT22;24356;48.460;11.450;2023-06-04T03:52:06;10.10;74.20
38592;DHT22;24356;48.460;11.450;2023-06-04T03:54:32;10.00;74.30
38592;DHT22;24356;48.460;11.450;2023-06-04T03:56:57;10.00;74.20
38592;DHT22;24356;48.460;11.450;2023-06-04T03:59:23;10.00;74.20
38592;DHT22;24356;48.460;11.450;2023-06-04T04:01:48;10.00;74.30
38592;DHT22;24356;48.460;11.450;2023-06-04T04:04:14;10.00;74.20
38592;DHT22;24356;48.460;11.450;2023-06-04T04:06:40;10.00;74.30
38592;DHT22;24356;48.460;11.450;2023-06-04T04:09:06;10.00;74.20
38592;DHT22;24356;48.460;11.450;2023-06-04T04:11:32;10.00;74.40
38592;DHT22;24356;48.460;11.450;2023-06-04T04:13:58;10.00;74.30
38592;DHT22;24356;48.460;11.450;2023-06-04T04:16:26;10.00;74.30
38592;DHT22;24356;48.460;11.450;2023-06-04T04:18:53;10.00;74.40
38592;DHT22;24356;48.460;11.450;2023-06-04T04:21:18;10.00;74.50
38592;DHT22;24356;48.460;11.450;2023-06-04T04:23:45;10.00;74.40
38592;DHT22;24356;48.460;11.450;2023-06-04T04:26:11;10.00;74.40
38592;DHT22;24356;48.460;11.450;2023-06-04T04:28:36;10.00;74.40
38592;DHT22;24356;48.460;11.450;2023-06-04T04:31:03;10.00;74.40
38592;DHT22;24356;48.460;11.450;2023-06-04T04:33:29;10.00;74.40
38592;DHT22;24356;48.460;11.450;2023-06-04T04:35:58;10.10;74.40
38592;DHT22;24356;48.460;11.450;2023-06-04T04:38:25;10.10;74.40
38592;DHT22;24356;48.460;11.450;2023-06-04T04:40:51;10.10;74.30
38592;DHT22;24356;48.460;11.450;2023-06-04T04:43:34;10.10;74.40
38592;DHT22;24356;48.460;11.450;2023-06-04T04:46:00;10.10;74.30
38592;DHT22;24356;48.460;11.450;2023-06-04T04:48:25;10.20;74.20
38592;DHT22;24356;48.460;11.450;2023-06-04T04:50:52;10.20;74.10
38592;DHT22;24356;48.460;11.450;2023-06-04T04:53:18;10.20;74.20
38592;DHT22;24356;48.460;11.450;2023-06-04T04:55:44;10.20;74.00
38592;DHT22;24356;48.460;11.450;2023-06-04T04:58:09;10.30;74.00
38592;DHT22;24356;48.460;11.450;2023-06-04T05:00:35;10.30;74.00
38592;DHT22;24356;48.460;11.450;2023-06-04T05:03:01;10.30;74.00
38592;DHT22;24356;48.460;11.450;2023-06-04T05:05:26;10.40;73.90
38592;DHT22;24356;48.460;11.450;2023-06-04T05:07:52;10.40;74.00
38592;DHT22;24356;48.460;11.450;2023-06-04T05:10:19;10.40;73.80
38592;DHT22;24356;48.460;11.450;2023-06-04T05:12:52;10.40;73.80
38592;DHT22;24356;48.460;11.450;2023-06-04T05:15:18;10.50;73.80
38592;DHT22;24356;48.460;11.450;2023-06-04T05:17:45;10.50;73.70
38592;DHT22;24356;48.460;11.450;2023-06-04T05:20:12;10.50;73.70
38592;DHT22;24356;48.460;11.450;2023-06-04T05:22:38;10.60;73.60
38592;DHT22;24356;48.460;11.450;2023-06-04T05:25:04;10.60;73.60
38592;DHT22;24356;48.460;11.450;2023-06-04T05:27:33;10.60;73.50
38592;DHT22;24356;48.460;11.450;2023-06-04T05:29:58;10.60;73.40
38592;DHT22;24356;48.460;11.450;2023-06-04T05:32:26;10.70;73.30
38592;DHT22;24356;48.460;11.450;2023-06-04T05:34:54;10.70;73.10
38592;DHT22;24356;48.460;11.450;2023-06-04T05:37:23;10.70;73.10
38592;DHT22;24356;48.460;11.450;2023-06-04T05:39:49;10.80;73.10
38592;DHT22;24356;48.460;11.450;2023-06-04T05:42:15;10.80;73.10
38592;DHT22;24356;48.460;11.450;2023-06-04T05:44:41;10.80;74.00
38592;DHT22;24356;48.460;11.450;2023-06-04T05:47:07;10.90;73.80
38592;DHT22;24356;48.460;11.450;2023-06-04T05:49:34;10.90;73.90
38592;DHT22;24356;48.460;11.450;2023-06-04T05:52:00;10.90;74.60
38592;DHT22;24356;48.460;11.450;2023-06-04T05:54:28;11.00;73.30
38592;DHT22;24356;48.460;11.450;2023-06-04T05:56:54;11.00;74.10
38592;DHT22;24356;48.460;11.450;2023-06-04T05:59:19;11.10;74.10
38592;DHT22;24356;48.460;11.450;2023-06-04T06:01:46;11.10;74.30
38592;DHT22;24356;48.460;11.450;2023-06-04T06:04:13;11.20;74.20
38592;DHT22;24356;48.460;11.450;2023-06-04T06:06:39;11.30;74.20
38592;DHT22;24356;48.460;11.450;2023-06-04T06:09:04;11.40;73.60
38592;DHT22;24356;48.460;11.450;2023-06-04T06:11:31;11.50;73.50
38592;DHT22;24356;48.460;11.450;2023-06-04T06:13:57;11.60;73.30
38592;DHT22;24356;48.460;11.450;2023-06-04T06:16:23;11.70;73.20
38592;DHT22;24356;48.460;11.450;2023-06-04T06:18:49;11.80;73.20
38592;DHT22;24356;48.460;11.450;2023-06-04T06:21:16;11.90;73.30
38592;DHT22;24356;48.460;11.450;2023-06-04T06:23:41;12.00;72.90
38592;DHT22;24356;48.460;11.450;2023-06-04T06:26:07;12.20;73.00
38592;DHT22;24356;48.460;11.450;2023-06-04T06:28:33;12.30;72.80
38592;DHT22;24356;48.460;11.450;2023-06-04T06:30:59;12.40;72.50
38592;DHT22;24356;48.460;11.450;2023-06-04T06:33:25;12.50;72.30
38592;DHT22;24356;48.460;11.450;2023-06-04T06:35:51;12.60;72.00
38592;DHT22;24356;48.460;11.450;2023-06-04T06:38:17;12.80;71.90
38592;DHT22;24356;48.460;11.450;2023-06-04T06:40:44;12.90;71.90
38592;DHT22;24356;48.460;11.450;2023-06-04T06:43:09;13.00;71.90
38592;DHT22;24356;48.460;11.450;2023-06-04T06:45:36;13.10;71.90
38592;DHT22;24356;48.460;11.450;2023-06-04T06:48:01;13.30;71.50
38592;DHT22;24356;48.460;11.450;2023-06-04T06:50:27;13.40;71.50
38592;DHT22;24356;48.460;11.450;2023-06-04T06:52:53;13.50;71.30
38592;DHT22;24356;48.460;11.450;2023-06-04T06:55:18;13.60;71.20
38592;DHT22;24356;48.460;11.450;2023-06-04T06:57:44;13.80;70.90
38592;DHT22;24356;48.460;11.450;2023-06-04T07:00:10;13.90;70.90
38592;DHT22;24356;48.460;11.450;2023-06-04T07:02:36;14.00;70.70
38592;DHT22;24356;48.460;11.450;2023-06-04T07:05:02;14.20;70.80
38592;DHT22;24356;48.460;11.450;2023-06-04T07:07:28;14.30;70.50
38592;DHT22;24356;48.460;11.450;2023-06-04T07:09:53;14.50;70.70
38592;DHT22;24356;48.460;11.450;2023-06-04T07:12:19;14.60;70.60
38592;DHT22;24356;48.460;11.450;2023-06-04T07:14:45;14.80;70.20
38592;DHT22;24356;48.460;11.450;2023-06-04T07:17:10;15.00;70.10
38592;DHT22;24356;48.460;11.450;2023-06-04T07:19:36;15.20;69.70
38592;DHT22;24356;48.460;11.450;2023-06-04T07:22:03;15.40;69.30
38592;DHT22;24356;48.460;11.450;2023-06-04T07:24:29;15.60;69.00
38592;DHT22;24356;48.460;11.450;2023-06-04T07:26:56;15.80;69.00
38592;DHT22;24356;48.460;11.450;2023-06-04T07:29:22;15.90;69.50
38592;DHT22;24356;48.460;11.450;2023-06-04T07:31:47;16.10;69.70
38592;DHT22;24356;48.460;11.450;2023-06-04T07:34:14;16.20;69.70
38592;DHT22;24356;48.460;11.450;2023-06-04T07:36:40;16.40;69.60
38592;DHT22;24356;48.460;11.450;2023-06-04T07:39:06;16.60;69.90
38592;DHT22;24356;48.460;11.450;2023-06-04T07:41:32;16.80;70.10
38592;DHT22;24356;48.460;11.450;2023-06-04T07:43:57;17.00;69.60
38592;DHT22;24356;48.460;11.450;2023-06-04T07:46:23;17.20;70.10
38592;DHT22;24356;48.460;11.450;2023-06-04T07:48:49;17.40;70.00
38592;DHT22;24356;48.460;11.450;2023-06-04T07:51:14;17.70;69.80
38592;DHT22;24356;48.460;11.450;2023-06-04T07:53:41;17.90;69.60
38592;DHT22;24356;48.460;11.450;2023-06-04T07:56:08;18.20;69.20
38592;DHT22;24356;48.460;11.450;2023-06-04T07:58:34;18.40;68.30
38592;DHT22;24356;48.460;11.450;2023-06-04T08:01:00;18.50;68.60
38592;DHT22;24356;48.460;11.450;2023-06-04T08:03:25;18.70;69.10
38592;DHT22;24356;48.460;11.450;2023-06-04T08:05:51;18.80;69.30
38592;DHT22;24356;48.460;11.450;2023-06-04T08:08:17;19.00;68.60
38592;DHT22;24356;48.460;11.450;2023-06-04T08:10:42;19.20;68.50
38592;DHT22;24356;48.460;11.450;2023-06-04T08:13:08;19.40;69.00
38592;DHT22;24356;48.460;11.450;2023-06-04T08:15:36;19.50;68.80
38592;DHT22;24356;48.460;11.450;2023-06-04T08:18:02;19.70;68.80
38592;DHT22;24356;48.460;11.450;2023-06-04T08:20:27;19.90;68.40
38592;DHT22;24356;48.460;11.450;2023-06-04T08:22:54;20.10;68.60
38592;DHT22;24356;48.460;11.450;2023-06-04T08:25:20;20.30;68.50
38592;DHT22;24356;48.460;11.450;2023-06-04T08:27:45;20.50;67.50
38592;DHT22;24356;48.460;11.450;2023-06-04T08:30:11;20.70;67.00
38592;DHT22;24356;48.460;11.450;2023-06-04T08:32:37;20.80;65.40
38592;DHT22;24356;48.460;11.450;2023-06-04T08:35:02;21.00;65.70
38592;DHT22;24356;48.460;11.450;2023-06-04T08:37:28;21.20;64.40
38592;DHT22;24356;48.460;11.450;2023-06-04T08:39:54;21.30;65.10
38592;DHT22;24356;48.460;11.450;2023-06-04T08:42:29;21.40;66.10
38592;DHT22;24356;48.460;11.450;2023-06-04T08:44:57;21.60;65.40
38592;DHT22;24356;48.460;11.450;2023-06-04T08:47:29;21.80;66.70
38592;DHT22;24356;48.460;11.450;2023-06-04T08:50:00;21.90;65.10
38592;DHT22;24356;48.460;11.450;2023-06-04T08:52:27;22.10;63.60
38592;DHT22;24356;48.460;11.450;2023-06-04T08:54:54;22.30;64.90
38592;DHT22;24356;48.460;11.450;2023-06-04T08:57:20;22.40;65.50
38592;DHT22;24356;48.460;11.450;2023-06-04T08:59:47;22.60;64.60
38592;DHT22;24356;48.460;11.450;2023-06-04T09:02:14;22.70;64.50
38592;DHT22;24356;48.460;11.450;2023-06-04T09:04:40;22.90;63.80
38592;DHT22;24356;48.460;11.450;2023-06-04T09:07:08;23.00;63.40
38592;DHT22;24356;48.460;11.450;2023-06-04T09:09:39;23.10;64.50
38592;DHT22;24356;48.460;11.450;2023-06-04T09:12:09;23.30;64.10
38592;DHT22;24356;48.460;11.450;2023-06-04T09:14:36;23.40;65.50
38592;DHT22;24356;48.460;11.450;2023-06-04T09:17:01;23.60;64.60
38592;DHT22;24356;48.460;11.450;2023-06-04T09:19:27;23.70;64.40
38592;DHT22;24356;48.460;11.450;2023-06-04T09:21:54;23.80;64.20
38592;DHT22;24356;48.460;11.450;2023-06-04T09:24:22;24.00;64.40
38592;DHT22;24356;48.460;11.450;2023-06-04T09:26:48;24.10;65.00
38592;DHT22;24356;48.460;11.450;2023-06-04T09:29:14;24.20;64.30
38592;DHT22;24356;48.460;11.450;2023-06-04T09:31:41;24.40;64.40
38592;DHT22;24356;48.460;11.450;2023-06-04T09:34:07;24.50;64.40
38592;DHT22;24356;48.460;11.450;2023-06-04T09:36:34;24.70;64.90
38592;DHT22;24356;48.460;11.450;2023-06-04T09:39:14;24.80;65.70
38592;DHT22;24356;48.460;11.450;2023-06-04T09:41:40;24.90;66.60
38592;DHT22;24356;48.460;11.450;2023-06-04T09:44:05;25.00;66.30
38592;DHT22;24356;48.460;11.450;2023-06-04T09:46:31;25.10;66.40
38592;DHT22;24356;48.460;11.450;2023-06-04T09:49:05;25.20;64.60
38592;DHT22;24356;48.460;11.450;2023-06-04T09:51:31;25.40;64.30
38592;DHT22;24356;48.460;11.450;2023-06-04T09:54:02;25.50;63.90
38592;DHT22;24356;48.460;11.450;2023-06-04T09:56:28;25.60;65.40
38592;DHT22;24356;48.460;11.450;2023-06-04T09:58:58;25.70;64.00
38592;DHT22;24356;48.460;11.450;2023-06-04T10:01:28;25.70;63.50
38592;DHT22;24356;48.460;11.450;2023-06-04T10:03:54;25.90;63.00
38592;DHT22;24356;48.460;11.450;2023-06-04T10:06:22;26.00;63.70
38592;DHT22;24356;48.460;11.450;2023-06-04T10:08:49;26.10;63.20
38592;DHT22;24356;48.460;11.450;2023-06-04T10:11:22;26.20;62.60
38592;DHT22;24356;48.460;11.450;2023-06-04T10:14:02;26.30;62.90
38592;DHT22;24356;48.460;11.450;2023-06-04T10:16:30;26.40;61.00
38592;DHT22;24356;48.460;11.450;2023-06-04T10:18:57;26.60;61.40
38592;DHT22;24356;48.460;11.450;2023-06-04T10:21:25;26.70;63.40
38592;DHT22;24356;48.460;11.450;2023-06-04T10:23:52;26.80;62.00
38592;DHT22;24356;48.460;11.450;2023-06-04T10:26:18;26.90;61.40
38592;DHT22;24356;48.460;11.450;2023-06-04T10:28:44;27.00;60.30
38592;DHT22;24356;48.460;11.450;2023-06-04T10:31:10;27.10;60.60
38592;DHT22;24356;48.460;11.450;2023-06-04T10:33:39;27.30;59.00
38592;DHT22;24356;48.460;11.450;2023-06-04T10:36:19;27.40;57.10
38592;DHT22;24356;48.460;11.450;2023-06-04T10:38:52;27.60;57.50
38592;DHT22;24356;48.460;11.450;2023-06-04T10:41:19;27.70;58.60
38592;DHT22;24356;48.460;11.450;2023-06-04T10:43:47;27.80;56.20
38592;DHT22;24356;48.460;11.450;2023-06-04T10:46:18;27.90;57.20
38592;DHT22;24356;48.460;11.450;2023-06-04T10:48:51;28.00;54.80
38592;DHT22;24356;48.460;11.450;2023-06-04T10:51:32;28.10;54.90
38592;DHT22;24356;48.460;11.450;2023-06-04T10:53:59;28.20;55.00
38592;DHT22;24356;48.460;11.450;2023-06-04T10:56:32;28.30;54.50
38592;DHT22;24356;48.460;11.450;2023-06-04T10:58:59;28.40;54.10
38592;DHT22;24356;48.460;11.450;2023-06-04T11:01:25;28.40;53.80
38592;DHT22;24356;48.460;11.450;2023-06-04T11:03:51;28.40;53.50
38592;DHT22;24356;48.460;11.450;2023-06-04T11:06:17;28.20;52.90
38592;DHT22;24356;48.460;11.450;2023-06-04T11:08:43;28.00;52.90
38592;DHT22;24356;48.460;11.450;2023-06-04T11:11:13;27.80;53.60
38592;DHT22;24356;48.460;11.450;2023-06-04T11:13:39;27.70;54.50
38592;DHT22;24356;48.460;11.450;2023-06-04T11:16:18;27.70;54.70
38592;DHT22;24356;48.460;11.450;2023-06-04T11:18:54;27.70;54.70
38592;DHT22;24356;48.460;11.450;2023-06-04T11:21:21;27.80;55.10
38592;DHT22;24356;48.460;11.450;2023-06-04T11:23:47;27.90;54.90
38592;DHT22;24356;48.460;11.450;2023-06-04T11:26:15;28.00;54.90
38592;DHT22;24356;48.460;11.450;2023-06-04T11:28:42;28.00;55.20
38592;DHT22;24356;48.460;11.450;2023-06-04T11:31:08;28.10;53.60
38592;DHT22;24356;48.460;11.450;2023-06-04T11:33:47;28.10;53.70
38592;DHT22;24356;48.460;11.450;2023-06-04T11:36:28;28.10;53.10
38592;DHT22;24356;48.460;11.450;2023-06-04T11:38:59;28.20;53.00
38592;DHT22;24356;48.460;11.450;2023-06-04T11:41:29;28.30;53.20
38592;DHT22;24356;48.460;11.450;2023-06-04T11:43:56;28.30;53.20
38592;DHT22;24356;48.460;11.450;2023-06-04T11:46:23;28.40;53.50
38592;DHT22;24356;48.460;11.450;2023-06-04T11:48:51;28.40;53.60
38592;DHT22;24356;48.460;11.450;2023-06-04T11:51:17;28.50;53.40
38592;DHT22;24356;48.460;11.450;2023-06-04T11:53:44;28.50;53.10
38592;DHT22;24356;48.460;11.450;2023-06-04T11:56:10;28.60;53.30
38592;DHT22;24356;48.460;11.450;2023-06-04T11:58:36;28.60;53.00
38592;DHT22;24356;48.460;11.450;2023-06-04T12:01:02;28.60;52.50
38592;DHT22;24356;48.460;11.450;2023-06-04T12:03:41;28.50;52.30
38592;DHT22;24356;48.460;11.450;2023-06-04T12:06:18;28.40;52.70
38592;DHT22;24356;48.460;11.450;2023-06-04T12:08:46;28.30;52.90
38592;DHT22;24356;48.460;11.450;2023-06-04T12:11:30;28.30;53.30
38592;DHT22;24356;48.460;11.450;2023-06-04T12:14:03;28.30;53.50
38592;DHT22;24356;48.460;11.450;2023-06-04T12:16:30;28.40;53.70
38592;DHT22;24356;48.460;11.450;2023-06-04T12:21:32;28.50;54.10
38592;DHT22;24356;48.460;11.450;2023-06-04T12:24:12;28.60;54.00
38592;DHT22;24356;48.460;11.450;2023-06-04T12:26:39;28.60;53.90
38592;DHT22;24356;48.460;11.450;2023-06-04T12:29:17;28.70;53.90
38592;DHT22;24356;48.460;11.450;2023-06-04T12:31:47;28.80;53.80
38592;DHT22;24356;48.460;11.450;2023-06-04T12:34:15;28.90;54.10
38592;DHT22;24356;48.460;11.450;2023-06-04T12:36:40;29.00;54.00
38592;DHT22;24356;48.460;11.450;2023-06-04T12:39:06;29.00;53.90
38592;DHT22;24356;48.460;11.450;2023-06-04T12:41:32;29.10;54.10
38592;DHT22;24356;48.460;11.450;2023-06-04T12:43:59;29.20;54.00
38592;DHT22;24356;48.460;11.450;2023-06-04T12:46:25;29.20;54.30
38592;DHT22;24356;48.460;11.450;2023-06-04T12:48:52;29.30;54.40
38592;DHT22;24356;48.460;11.450;2023-06-04T12:51:18;29.40;54.80
38592;DHT22;24356;48.460;11.450;2023-06-04T12:53:44;29.50;54.60
38592;DHT22;24356;48.460;11.450;2023-06-04T12:56:10;29.60;54.60
38592;DHT22;24356;48.460;11.450;2023-06-04T12:58:36;29.70;54.60
38592;DHT22;24356;48.460;11.450;2023-06-04T13:01:02;29.80;54.70
38592;DHT22;24356;48.460;11.450;2023-06-04T13:03:30;29.90;54.50
38592;DHT22;24356;48.460;11.450;2023-06-04T13:05:56;30.00;54.50
38592;DHT22;24356;48.460;11.450;2023-06-04T13:08:22;30.10;54.10
38592;DHT22;24356;48.460;11.450;2023-06-04T13:10:49;30.20;53.90
38592;DHT22;24356;48.460;11.450;2023-06-04T13:13:16;30.30;53.70
38592;DHT22;24356;48.460;11.450;2023-06-04T13:15:45;30.40;53.40
38592;DHT22;24356;48.460;11.450;2023-06-04T13:18:12;30.50;53.50
38592;DHT22;24356;48.460;11.450;2023-06-04T13:20:39;30.50;53.10
38592;DHT22;24356;48.460;11.450;2023-06-04T13:23:05;30.50;53.00
38592;DHT22;24356;48.460;11.450;2023-06-04T13:25:31;30.60;53.00
38592;DHT22;24356;48.460;11.450;2023-06-04T13:27:59;30.60;53.20
38592;DHT22;24356;48.460;11.450;2023-06-04T13:30:25;30.70;52.90
38592;DHT22;24356;48.460;11.450;2023-06-04T13:32:52;30.70;52.90
38592;DHT22;24356;48.460;11.450;2023-06-04T13:35:17;30.70;52.50
38592;DHT22;24356;48.460;11.450;2023-06-04T13:37:43;30.70;52.20
38592;DHT22;24356;48.460;11.450;2023-06-04T13:40:09;30.70;53.10
38592;DHT22;24356;48.460;11.450;2023-06-04T13:42:34;30.70;53.10
38592;DHT22;24356;48.460;11.450;2023-06-04T13:45:00;30.70;52.70
38592;DHT22;24356;48.460;11.450;2023-06-04T13:47:26;30.60;52.70
38592;DHT22;24356;48.460;11.450;2023-06-04T13:49:53;30.50;52.40
38592;DHT22;24356;48.460;11.450;2023-06-04T13:52:20;30.40;52.70
38592;DHT22;24356;48.460;11.450;2023-06-04T13:54:46;30.30;52.70
38592;DHT22;24356;48.460;11.450;2023-06-04T13:57:12;30.10;52.60
38592;DHT22;24356;48.460;11.450;2023-06-04T13:59:38;30.00;52.70
38592;DHT22;24356;48.460;11.450;2023-06-04T14:02:04;29.90;53.00
38592;DHT22;24356;48.460;11.450;2023-06-04T14:04:31;29.70;53.00
38592;DHT22;24356;48.460;11.450;2023-06-04T14:06:56;29.60;53.20
38592;DHT22;24356;48.460;11.450;2023-06-04T14:09:22;29.50;52.60
38592;DHT22;24356;48.460;11.450;2023-06-04T14:11:48;29.50;53.20
38592;DHT22;24356;48.460;11.450;2023-06-04T14:14:19;29.40;53.10
38592;DHT22;24356;48.460;11.450;2023-06-04T14:16:45;29.40;53.40
38592;DHT22;24356;48.460;11.450;2023-06-04T14:19:12;29.30;52.60
38592;DHT22;24356;48.460;11.450;2023-06-04T14:21:37;29.30;53.20
38592;DHT22;24356;48.460;11.450;2023-06-04T14:24:03;29.20;53.30
38592;DHT22;24356;48.460;11.450;2023-06-04T14:26:29;29.00;53.30
38592;DHT22;24356;48.460;11.450;2023-06-04T14:28:55;28.90;53.20
38592;DHT22;24356;48.460;11.450;2023-06-04T14:31:21;28.70;53.20
38592;DHT22;24356;48.460;11.450;2023-06-04T14:33:48;28.60;53.20
38592;DHT22;24356;48.460;11.450;2023-06-04T14:36:13;28.50;53.20
38592;DHT22;24356;48.460;11.450;2023-06-04T14:38:39;28.30;53.40
38592;DHT22;24356;48.460;11.450;2023-06-04T14:41:05;28.20;53.60
38592;DHT22;24356;48.460;11.450;2023-06-04T14:43:30;28.10;53.70
38592;DHT22;24356;48.460;11.450;2023-06-04T14:45:56;28.00;53.80
38592;DHT22;24356;48.460;11.450;2023-06-04T14:48:22;27.90;53.90
38592;DHT22;24356;48.460;11.450;2023-06-04T14:50:48;27.80;54.20
38592;DHT22;24356;48.460;11.450;2023-06-04T14:53:14;27.80;54.50
38592;DHT22;24356;48.460;11.450;2023-06-04T14:55:39;27.70;54.60
38592;DHT22;24356;48.460;11.450;2023-06-04T14:58:05;27.70;54.30
38592;DHT22;24356;48.460;11.450;2023-06-04T15:00:31;27.60;54.60
38592;DHT22;24356;48.460;11.450;2023-06-04T15:02:57;27.60;54.40
38592;DHT22;24356;48.460;11.450;2023-06-04T15:05:23;27.50;54.30
38592;DHT22;24356;48.460;11.450;2023-06-04T15:07:49;27.40;54.40
38592;DHT22;24356;48.460;11.450;2023-06-04T15:10:15;27.30;54.40
38592;DHT22;24356;48.460;11.450;2023-06-04T15:12:40;27.20;54.50
38592;DHT22;24356;48.460;11.450;2023-06-04T15:15:07;27.10;54.60
38592;DHT22;24356;48.460;11.450;2023-06-04T15:17:34;27.00;54.60
38592;DHT22;24356;48.460;11.450;2023-06-04T15:20:00;26.90;54.70
38592;DHT22;24356;48.460;11.450;2023-06-04T15:22:26;26.90;54.80
38592;DHT22;24356;48.460;11.450;2023-06-04T15:24:53;26.80;54.90
38592;DHT22;24356;48.460;11.450;2023-06-04T15:27:18;26.80;55.00
38592;DHT22;24356;48.460;11.450;2023-06-04T15:29:44;26.70;55.30
38592;DHT22;24356;48.460;11.450;2023-06-04T15:32:10;26.70;55.40